createdAt,value
2018-11-02T00:00:46.800Z,992.58
2018-11-02T00:01:46.797Z,992.57
2018-11-02T00:02:46.771Z,992.58
2018-11-02T00:03:46.764Z,992.55
2018-11-02T00:04:46.799Z,992.55
2018-11-02T00:05:46.738Z,992.57
2018-11-02T00:06:46.741Z,992.58
2018-11-02T00:07:46.718Z,992.55
2018-11-02T00:08:46.706Z,992.58
2018-11-02T00:09:46.695Z,992.54
2018-11-02T00:10:46.701Z,992.55
2018-11-02T00:11:46.694Z,992.56
2018-11-02T00:12:46.665Z,992.58
2018-11-02T00:13:46.655Z,992.56
2018-11-02T00:14:46.644Z,992.60
2018-11-02T00:15:46.632Z,992.58
2018-11-02T00:16:46.666Z,992.65
2018-11-02T00:17:46.613Z,992.63
2018-11-02T00:18:46.604Z,992.63
2018-11-02T00:19:46.619Z,992.59
2018-11-02T00:20:46.580Z,992.61
2018-11-02T00:21:46.582Z,992.67
2018-11-02T00:22:46.573Z,992.59
2018-11-02T00:23:46.549Z,992.58
2018-11-02T00:24:46.548Z,992.64
2018-11-02T00:25:46.527Z,992.59
2018-11-02T00:26:46.538Z,992.56
2018-11-02T00:27:46.508Z,992.58
2018-11-02T00:28:46.522Z,992.59
2018-11-02T00:29:46.486Z,992.65
2018-11-02T00:30:46.473Z,992.61
2018-11-02T00:31:46.521Z,992.62
2018-11-02T00:32:46.459Z,992.62
2018-11-02T00:33:46.442Z,992.63
2018-11-02T00:34:46.446Z,992.64
2018-11-02T00:35:46.431Z,992.66
2018-11-02T00:36:46.426Z,992.68
2018-11-02T00:37:46.398Z,992.69
2018-11-02T00:38:46.396Z,992.67
2018-11-02T00:39:46.387Z,992.70
2018-11-02T00:40:46.368Z,992.73
2018-11-02T00:41:46.357Z,992.72
2018-11-02T00:42:46.358Z,992.67
2018-11-02T00:43:46.358Z,992.70
2018-11-02T00:44:46.325Z,992.70
2018-11-02T00:45:46.353Z,992.71
2018-11-02T00:46:46.304Z,992.67
2018-11-02T00:47:46.308Z,992.68
2018-11-02T00:48:46.281Z,992.68
2018-11-02T00:49:46.274Z,992.72
2018-11-02T00:50:46.260Z,992.64
2018-11-02T00:51:46.279Z,992.64
2018-11-02T00:52:46.258Z,992.72
2018-11-02T00:53:46.229Z,992.74
2018-11-02T00:54:46.219Z,992.73
2018-11-02T00:55:46.206Z,992.69
2018-11-02T00:56:46.204Z,992.67
2018-11-02T00:57:46.254Z,992.67
2018-11-02T00:58:46.185Z,992.67
2018-11-02T00:59:46.163Z,992.63
2018-11-02T01:00:46.152Z,992.67
2018-11-02T01:01:46.143Z,992.67
2018-11-02T01:02:46.145Z,992.70
2018-11-02T01:03:46.155Z,992.63
2018-11-02T01:04:46.111Z,992.62
2018-11-02T01:05:46.099Z,992.64
2018-11-02T01:06:46.088Z,992.60
2018-11-02T01:07:46.094Z,992.62
2018-11-02T01:08:46.067Z,992.61
2018-11-02T01:09:46.092Z,992.61
2018-11-02T01:10:46.047Z,992.62
2018-11-02T01:11:46.035Z,992.63
2018-11-02T01:12:46.063Z,992.67
2018-11-02T01:13:46.014Z,992.63
2018-11-02T01:14:46.009Z,992.62
2018-11-02T01:15:46.031Z,992.67
2018-11-02T01:16:46.093Z,992.66
2018-11-02T01:17:45.986Z,992.66
2018-11-02T01:18:45.979Z,992.60
2018-11-02T01:19:45.951Z,992.65
2018-11-02T01:20:45.940Z,992.62
2018-11-02T01:21:45.933Z,992.70
2018-11-02T01:22:46.022Z,992.68
2018-11-02T01:23:45.907Z,992.63
2018-11-02T01:24:45.897Z,992.71
2018-11-02T01:25:45.887Z,992.67
2018-11-02T01:26:45.875Z,992.68
2018-11-02T01:27:45.881Z,992.64
2018-11-02T01:28:45.906Z,992.64
2018-11-02T01:29:45.845Z,992.64
2018-11-02T01:30:45.834Z,992.54
2018-11-02T01:31:45.821Z,992.55
2018-11-02T01:32:45.826Z,992.50
2018-11-02T01:33:45.801Z,992.49
2018-11-02T01:34:45.807Z,992.52
2018-11-02T01:35:45.793Z,992.47
2018-11-02T01:36:45.772Z,992.54
2018-11-02T01:37:45.771Z,992.49
2018-11-02T01:38:45.752Z,992.51
2018-11-02T01:39:45.736Z,992.50
2018-11-02T01:40:45.768Z,992.43
2018-11-02T01:41:45.717Z,992.48
2018-11-02T01:42:45.721Z,992.43
2018-11-02T01:43:45.693Z,992.50
2018-11-02T01:44:45.721Z,992.44
2018-11-02T01:45:45.671Z,992.49
2018-11-02T01:46:45.719Z,992.49
2018-11-02T01:47:45.665Z,992.52
2018-11-02T01:48:45.640Z,992.55
2018-11-02T01:49:45.630Z,992.51
2018-11-02T01:50:45.619Z,992.55
2018-11-02T01:51:45.607Z,992.55
2018-11-02T01:52:45.618Z,992.54
2018-11-02T01:53:45.586Z,992.58
2018-11-02T01:54:45.580Z,992.62
2018-11-02T01:55:45.566Z,992.63
2018-11-02T01:56:45.558Z,992.68
2018-11-02T01:57:45.562Z,992.73
2018-11-02T01:58:45.597Z,992.73
2018-11-02T01:59:45.524Z,992.80
2018-11-02T02:00:45.512Z,992.81
2018-11-02T02:01:45.502Z,992.80
2018-11-02T02:02:45.503Z,992.81
2018-11-02T02:03:45.479Z,992.79
2018-11-02T02:04:45.475Z,992.76
2018-11-02T02:05:45.499Z,992.73
2018-11-02T02:06:45.449Z,992.76
2018-11-02T02:07:45.453Z,992.79
2018-11-02T02:08:45.426Z,992.77
2018-11-02T02:09:45.422Z,992.82
2018-11-02T02:10:45.405Z,992.82
2018-11-02T02:11:45.440Z,992.81
2018-11-02T02:12:45.397Z,992.80
2018-11-02T02:13:45.373Z,992.76
2018-11-02T02:14:45.379Z,992.71
2018-11-02T02:15:45.361Z,992.73
2018-11-02T02:16:45.341Z,992.74
2018-11-02T02:17:45.357Z,992.74
2018-11-02T02:18:45.320Z,992.76
2018-11-02T02:19:45.308Z,992.73
2018-11-02T02:20:45.299Z,992.78
2018-11-02T02:21:45.288Z,992.74
2018-11-02T02:22:45.324Z,992.76
2018-11-02T02:23:45.267Z,992.73
2018-11-02T02:24:45.258Z,992.79
2018-11-02T02:25:45.250Z,992.73
2018-11-02T02:26:45.237Z,992.75
2018-11-02T02:27:45.239Z,992.73
2018-11-02T02:28:45.223Z,992.78
2018-11-02T02:29:45.202Z,992.74
2018-11-02T02:30:45.192Z,992.75
2018-11-02T02:31:45.184Z,992.83
2018-11-02T02:32:45.185Z,992.82
2018-11-02T02:33:45.211Z,992.88
2018-11-02T02:34:45.213Z,992.88
2018-11-02T02:35:45.140Z,992.86
2018-11-02T02:36:45.140Z,992.91
2018-11-02T02:37:45.170Z,992.97
2018-11-02T02:38:45.107Z,992.98
2018-11-02T02:39:45.118Z,993.03
2018-11-02T02:40:45.089Z,992.99
2018-11-02T02:41:45.085Z,993.03
2018-11-02T02:42:45.076Z,993.02
2018-11-02T02:43:45.073Z,993.03
2018-11-02T02:44:45.045Z,993.00
2018-11-02T02:45:45.036Z,993.01
2018-11-02T02:46:45.023Z,992.98
2018-11-02T02:47:45.095Z,992.97
2018-11-02T02:48:45.035Z,993.03
2018-11-02T02:49:44.993Z,993.08
2018-11-02T02:50:44.982Z,993.08
2018-11-02T02:51:44.967Z,993.10
2018-11-02T02:52:44.975Z,993.08
2018-11-02T02:53:44.946Z,993.07
2018-11-02T02:54:44.971Z,993.09
2018-11-02T02:55:44.926Z,993.09
2018-11-02T02:56:44.916Z,993.11
2018-11-02T02:57:44.919Z,993.11
2018-11-02T02:58:44.898Z,993.14
2018-11-02T02:59:44.897Z,993.14
2018-11-02T03:00:44.912Z,993.14
2018-11-02T03:01:44.892Z,993.15
2018-11-02T03:02:44.864Z,993.15
2018-11-02T03:03:44.841Z,993.15
2018-11-02T03:04:44.836Z,993.21
2018-11-02T03:05:44.826Z,993.20
2018-11-02T03:06:44.909Z,993.18
2018-11-02T03:07:44.811Z,993.24
2018-11-02T03:08:44.791Z,993.20
2018-11-02T03:09:44.780Z,993.20
2018-11-02T03:10:44.865Z,993.21
2018-11-02T03:11:44.756Z,993.17
2018-11-02T03:12:44.802Z,993.11
2018-11-02T03:13:44.735Z,993.14
2018-11-02T03:14:44.723Z,993.13
2018-11-02T03:15:44.721Z,993.16
2018-11-02T03:16:44.702Z,993.16
2018-11-02T03:17:45.708Z,993.19
2018-11-02T03:18:44.753Z,993.14
2018-11-02T03:19:44.702Z,993.14
2018-11-02T03:20:44.666Z,993.20
2018-11-02T03:21:44.652Z,993.15
2018-11-02T03:22:44.751Z,993.22
2018-11-02T03:23:44.629Z,993.15
2018-11-02T03:24:44.622Z,993.18
2018-11-02T03:25:44.654Z,993.22
2018-11-02T03:26:44.610Z,993.22
2018-11-02T03:27:44.629Z,993.25
2018-11-02T03:28:44.586Z,993.23
2018-11-02T03:29:44.565Z,993.22
2018-11-02T03:30:44.554Z,993.33
2018-11-02T03:31:44.553Z,993.26
2018-11-02T03:32:44.593Z,993.32
2018-11-02T03:33:44.525Z,993.29
2018-11-02T03:34:44.512Z,993.32
2018-11-02T03:35:44.502Z,993.30
2018-11-02T03:36:44.490Z,993.34
2018-11-02T03:37:44.491Z,993.31
2018-11-02T03:38:44.486Z,993.31
2018-11-02T03:39:44.457Z,993.35
2018-11-02T03:40:44.455Z,993.34
2018-11-02T03:41:44.436Z,993.38
2018-11-02T03:42:44.441Z,993.39
2018-11-02T03:43:44.462Z,993.43
2018-11-02T03:44:44.441Z,993.45
2018-11-02T03:45:44.396Z,993.48
2018-11-02T03:46:44.384Z,993.47
2018-11-02T03:47:44.385Z,993.52
2018-11-02T03:48:44.370Z,993.53
2018-11-02T03:49:44.377Z,993.59
2018-11-02T03:50:44.353Z,993.58
2018-11-02T03:51:44.329Z,993.60
2018-11-02T03:52:44.330Z,993.62
2018-11-02T03:53:44.308Z,993.67
2018-11-02T03:54:44.306Z,993.72
2018-11-02T03:55:44.320Z,993.77
2018-11-02T03:56:44.311Z,993.77
2018-11-02T03:57:44.281Z,993.72
2018-11-02T03:58:44.255Z,993.71
2018-11-02T03:59:44.248Z,993.68
2018-11-02T04:00:44.815Z,993.71
2018-11-02T04:01:44.266Z,993.70
2018-11-02T04:02:44.228Z,993.72
2018-11-02T04:03:44.254Z,993.72
2018-11-02T04:04:44.191Z,993.74
2018-11-02T04:05:44.184Z,993.72
2018-11-02T04:06:44.171Z,993.76
2018-11-02T04:07:44.195Z,993.77
2018-11-02T04:08:44.148Z,993.79
2018-11-02T04:09:44.236Z,993.80
2018-11-02T04:10:44.130Z,993.80
2018-11-02T04:11:44.115Z,993.80
2018-11-02T04:12:44.117Z,993.83
2018-11-02T04:13:44.127Z,993.86
2018-11-02T04:14:44.084Z,993.91
2018-11-02T04:15:44.149Z,993.86
2018-11-02T04:16:44.066Z,993.87
2018-11-02T04:17:44.066Z,993.89
2018-11-02T04:18:44.051Z,993.86
2018-11-02T04:19:44.069Z,993.90
2018-11-02T04:20:44.020Z,993.86
2018-11-02T04:21:44.011Z,993.85
2018-11-02T04:22:44.021Z,993.86
2018-11-02T04:23:43.993Z,993.85
2018-11-02T04:24:43.977Z,993.86
2018-11-02T04:25:44.006Z,993.87
2018-11-02T04:26:43.957Z,993.84
2018-11-02T04:27:43.947Z,993.86
2018-11-02T04:28:43.948Z,993.85
2018-11-02T04:29:43.956Z,993.81
2018-11-02T04:30:43.995Z,993.83
2018-11-02T04:31:43.942Z,993.84
2018-11-02T04:32:43.908Z,993.83
2018-11-02T04:33:43.896Z,993.86
2018-11-02T04:34:43.871Z,993.83
2018-11-02T04:35:43.862Z,993.82
2018-11-02T04:36:43.856Z,993.88
2018-11-02T04:37:43.873Z,993.91
2018-11-02T04:38:43.840Z,993.86
2018-11-02T04:39:43.824Z,993.88
2018-11-02T04:40:43.807Z,993.87
2018-11-02T04:41:43.800Z,993.89
2018-11-02T04:42:43.786Z,993.88
2018-11-02T04:43:43.814Z,993.90
2018-11-02T04:44:43.769Z,993.89
2018-11-02T04:45:43.758Z,993.83
2018-11-02T04:46:43.804Z,993.80
2018-11-02T04:47:43.732Z,993.86
2018-11-02T04:48:43.738Z,993.88
2018-11-02T04:49:43.720Z,993.89
2018-11-02T04:50:43.729Z,993.90
2018-11-02T04:51:43.690Z,993.94
2018-11-02T04:52:43.678Z,993.97
2018-11-02T04:53:43.681Z,993.97
2018-11-02T04:54:43.692Z,994.01
2018-11-02T04:55:43.672Z,994.05
2018-11-02T04:56:43.637Z,994.02
2018-11-02T04:57:43.624Z,994.06
2018-11-02T04:58:43.628Z,993.98
2018-11-02T04:59:43.602Z,993.97
2018-11-02T05:00:43.593Z,993.96
2018-11-02T05:01:43.592Z,993.95
2018-11-02T05:02:43.578Z,993.94
2018-11-02T05:03:43.590Z,993.91
2018-11-02T05:04:43.550Z,993.95
2018-11-02T05:05:43.539Z,993.89
2018-11-02T05:06:43.529Z,993.90
2018-11-02T05:07:43.551Z,993.93
2018-11-02T05:08:43.519Z,993.98
2018-11-02T05:09:43.524Z,994.01
2018-11-02T05:10:43.488Z,994.04
2018-11-02T05:11:43.475Z,994.01
2018-11-02T05:12:43.467Z,994.03
2018-11-02T05:13:43.476Z,994.06
2018-11-02T05:14:43.442Z,994.08
2018-11-02T05:15:43.433Z,994.05
2018-11-02T05:16:43.423Z,994.09
2018-11-02T05:17:43.412Z,994.10
2018-11-02T05:18:43.413Z,994.06
2018-11-02T05:19:43.406Z,994.04
2018-11-02T05:20:43.381Z,994.06
2018-11-02T05:21:43.423Z,994.05
2018-11-02T05:22:43.357Z,994.04
2018-11-02T05:23:43.362Z,994.06
2018-11-02T05:24:43.342Z,994.09
2018-11-02T05:25:43.355Z,994.11
2018-11-02T05:26:43.317Z,994.16
2018-11-02T05:27:43.309Z,994.15
2018-11-02T05:28:43.312Z,994.19
2018-11-02T05:29:43.287Z,994.21
2018-11-02T05:30:43.274Z,994.21
2018-11-02T05:31:43.261Z,994.18
2018-11-02T05:32:43.306Z,994.22
2018-11-02T05:33:43.257Z,994.22
2018-11-02T05:34:43.229Z,994.28
2018-11-02T05:35:43.221Z,994.27
2018-11-02T05:36:43.209Z,994.25
2018-11-02T05:37:43.202Z,994.24
2018-11-02T05:38:43.234Z,994.29
2018-11-02T05:39:43.206Z,994.28
2018-11-02T05:40:43.168Z,994.32
2018-11-02T05:41:43.161Z,994.29
2018-11-02T05:42:43.146Z,994.25
2018-11-02T05:43:43.148Z,994.29
2018-11-02T05:44:43.166Z,994.25
2018-11-02T05:45:43.113Z,994.29
2018-11-02T05:46:43.103Z,994.33
2018-11-02T05:47:43.091Z,994.32
2018-11-02T05:48:43.097Z,994.33
2018-11-02T05:49:43.071Z,994.33
2018-11-02T05:50:43.066Z,994.36
2018-11-02T05:51:43.074Z,994.34
2018-11-02T05:52:43.039Z,994.36
2018-11-02T05:53:43.040Z,994.40
2018-11-02T05:54:43.015Z,994.39
2018-11-02T05:55:43.005Z,994.39
2018-11-02T05:56:43.016Z,994.41
2018-11-02T05:57:42.984Z,994.46
2018-11-02T05:58:42.986Z,994.39
2018-11-02T05:59:42.962Z,994.38
2018-11-02T06:00:42.953Z,994.33
2018-11-02T06:01:43.044Z,994.38
2018-11-02T06:02:42.938Z,994.43
2018-11-02T06:03:42.932Z,994.40
2018-11-02T06:04:42.908Z,994.43
2018-11-02T06:05:42.896Z,994.48
2018-11-02T06:06:42.893Z,994.46
2018-11-02T06:07:42.950Z,994.53
2018-11-02T06:08:42.908Z,994.53
2018-11-02T06:09:42.860Z,994.56
2018-11-02T06:10:42.845Z,994.57
2018-11-02T06:11:42.841Z,994.55
2018-11-02T06:12:42.823Z,994.55
2018-11-02T06:13:42.836Z,994.54
2018-11-02T06:14:42.875Z,994.54
2018-11-02T06:15:42.794Z,994.58
2018-11-02T06:16:42.805Z,994.57
2018-11-02T06:17:42.800Z,994.56
2018-11-02T06:18:42.765Z,994.61
2018-11-02T06:19:42.762Z,994.63
2018-11-02T06:20:42.770Z,994.68
2018-11-02T06:21:42.729Z,994.67
2018-11-02T06:22:42.719Z,994.74
2018-11-02T06:23:42.706Z,994.77
2018-11-02T06:24:42.708Z,994.77
2018-11-02T06:25:42.683Z,994.78
2018-11-02T06:26:42.697Z,994.75
2018-11-02T06:27:42.662Z,994.74
2018-11-02T06:28:42.652Z,994.86
2018-11-02T06:29:42.653Z,994.81
2018-11-02T06:30:42.708Z,994.87
2018-11-02T06:31:42.619Z,994.90
2018-11-02T06:32:42.701Z,994.94
2018-11-02T06:33:42.597Z,994.96
2018-11-02T06:34:42.603Z,995.05
2018-11-02T06:35:42.576Z,995.03
2018-11-02T06:36:42.567Z,995.00
2018-11-02T06:37:42.554Z,995.03
2018-11-02T06:38:42.630Z,994.98
2018-11-02T06:39:42.547Z,994.98
2018-11-02T06:40:42.529Z,994.99
2018-11-02T06:41:42.512Z,995.05
2018-11-02T06:42:42.501Z,995.05
2018-11-02T06:43:42.489Z,995.05
2018-11-02T06:44:42.598Z,995.13
2018-11-02T06:45:42.470Z,995.11
2018-11-02T06:46:42.458Z,995.14
2018-11-02T06:47:42.452Z,995.16
2018-11-02T06:48:42.440Z,995.15
2018-11-02T06:49:42.474Z,995.13
2018-11-02T06:50:42.520Z,995.13
2018-11-02T06:51:42.407Z,995.17
2018-11-02T06:52:42.428Z,995.23
2018-11-02T06:53:42.384Z,995.23
2018-11-02T06:54:42.388Z,995.22
2018-11-02T06:55:42.404Z,995.21
2018-11-02T06:56:42.359Z,995.21
2018-11-02T06:57:42.339Z,995.22
2018-11-02T06:58:42.330Z,995.25
2018-11-02T06:59:42.722Z,995.23
2018-11-02T07:00:42.341Z,995.20
2018-11-02T07:01:42.398Z,995.23
2018-11-02T07:02:42.287Z,995.24
2018-11-02T07:03:42.278Z,995.23
2018-11-02T07:04:42.285Z,995.20
2018-11-02T07:05:42.255Z,995.28
2018-11-02T07:06:42.260Z,995.25
2018-11-02T07:07:42.520Z,995.29
2018-11-02T07:08:42.437Z,995.31
2018-11-02T07:09:42.218Z,995.35
2018-11-02T07:10:42.220Z,995.37
2018-11-02T07:11:42.192Z,995.42
2018-11-02T07:12:42.188Z,995.36
2018-11-02T07:13:42.200Z,995.32
2018-11-02T07:14:42.202Z,995.33
2018-11-02T07:15:42.170Z,995.35
2018-11-02T07:16:42.145Z,995.36
2018-11-02T07:17:42.131Z,995.41
2018-11-02T07:18:42.118Z,995.49
2018-11-02T07:19:42.129Z,995.42
2018-11-02T07:20:42.110Z,995.51
2018-11-02T07:21:42.087Z,995.51
2018-11-02T07:22:42.074Z,995.46
2018-11-02T07:23:42.062Z,995.47
2018-11-02T07:24:42.054Z,995.51
2018-11-02T07:25:42.086Z,995.56
2018-11-02T07:26:42.031Z,995.58
2018-11-02T07:27:42.021Z,995.62
2018-11-02T07:28:42.012Z,995.63
2018-11-02T07:29:42.002Z,995.64
2018-11-02T07:30:42.000Z,995.71
2018-11-02T07:31:42.141Z,995.70
2018-11-02T07:32:41.967Z,995.74
2018-11-02T07:33:41.957Z,995.80
2018-11-02T07:34:41.950Z,995.80
2018-11-02T07:35:41.946Z,995.78
2018-11-02T07:36:41.933Z,995.82
2018-11-02T07:37:41.930Z,995.83
2018-11-02T07:38:41.905Z,995.84
2018-11-02T07:39:41.941Z,995.88
2018-11-02T07:40:41.894Z,995.94
2018-11-02T07:41:41.872Z,995.97
2018-11-02T07:42:41.863Z,995.98
2018-11-02T07:43:41.884Z,995.99
2018-11-02T07:44:41.845Z,995.98
2018-11-02T07:45:41.843Z,995.95
2018-11-02T07:46:41.819Z,995.94
2018-11-02T07:47:41.984Z,996.01
2018-11-02T07:48:41.802Z,995.93
2018-11-02T07:49:41.835Z,995.99
2018-11-02T07:50:41.789Z,995.97
2018-11-02T07:51:41.764Z,995.93
2018-11-02T07:52:41.757Z,995.98
2018-11-02T07:53:41.746Z,995.97
2018-11-02T07:54:41.737Z,995.97
2018-11-02T07:55:41.792Z,995.93
2018-11-02T07:56:41.714Z,995.95
2018-11-02T07:57:41.706Z,995.92
2018-11-02T07:58:41.688Z,995.91
2018-11-02T07:59:41.725Z,995.97
2018-11-02T08:00:41.683Z,995.98
2018-11-02T08:01:41.740Z,995.93
2018-11-02T08:02:41.659Z,995.99
2018-11-02T08:03:41.636Z,995.97
2018-11-02T08:04:41.629Z,996.06
2018-11-02T08:05:41.632Z,995.99
2018-11-02T08:06:41.611Z,996.03
2018-11-02T08:07:41.650Z,996.00
2018-11-02T08:08:41.583Z,996.01
2018-11-02T08:09:41.578Z,995.94
2018-11-02T08:10:41.579Z,995.95
2018-11-02T08:11:41.673Z,996.04
2018-11-02T08:12:41.550Z,996.10
2018-11-02T08:13:41.576Z,996.12
2018-11-02T08:14:41.520Z,996.06
2018-11-02T08:15:41.529Z,996.21
2018-11-02T08:16:41.501Z,996.17
2018-11-02T08:17:41.503Z,996.19
2018-11-02T08:18:41.484Z,996.17
2018-11-02T08:19:41.520Z,996.27
2018-11-02T08:20:41.458Z,996.16
2018-11-02T08:21:41.458Z,996.23
2018-11-02T08:22:41.438Z,996.23
2018-11-02T08:23:41.426Z,996.27
2018-11-02T08:24:41.473Z,996.29
2018-11-02T08:25:41.466Z,996.41
2018-11-02T08:26:41.416Z,996.46
2018-11-02T08:27:41.383Z,996.45
2018-11-02T08:28:41.376Z,996.47
2018-11-02T08:29:41.366Z,996.45
2018-11-02T08:30:41.356Z,996.37
2018-11-02T08:31:41.415Z,996.39
2018-11-02T08:32:41.339Z,996.32
2018-11-02T08:33:41.324Z,996.28
2018-11-02T08:34:41.311Z,996.22
2018-11-02T08:35:41.298Z,996.25
2018-11-02T08:36:41.306Z,996.29
2018-11-02T08:37:41.328Z,996.32
2018-11-02T08:38:41.270Z,996.34
2018-11-02T08:39:41.255Z,996.38
2018-11-02T08:40:41.242Z,996.33
2018-11-02T08:41:41.250Z,996.36
2018-11-02T08:42:41.226Z,996.32
2018-11-02T08:43:41.277Z,996.34
2018-11-02T08:44:41.201Z,996.34
2018-11-02T08:45:41.192Z,996.33
2018-11-02T08:46:41.345Z,996.32
2018-11-02T08:47:41.170Z,996.38
2018-11-02T08:48:41.204Z,996.32
2018-11-02T08:49:41.191Z,996.29
2018-11-02T08:50:41.141Z,996.30
2018-11-02T08:51:41.143Z,996.22
2018-11-02T08:52:41.127Z,996.18
2018-11-02T08:53:41.107Z,996.25
2018-11-02T08:54:41.100Z,996.28
2018-11-02T08:55:41.117Z,996.20
2018-11-02T08:56:41.095Z,996.23
2018-11-02T08:57:41.088Z,996.27
2018-11-02T08:58:41.244Z,996.32
2018-11-02T08:59:41.134Z,996.31
2018-11-02T09:00:41.036Z,996.30
2018-11-02T09:01:41.124Z,996.34
2018-11-02T09:02:41.029Z,996.35
2018-11-02T09:03:41.003Z,996.38
2018-11-02T09:04:41.003Z,996.39
2018-11-02T09:05:40.984Z,996.43
2018-11-02T09:06:40.970Z,996.47
2018-11-02T09:07:41.059Z,996.45
2018-11-02T09:08:40.948Z,996.47
2018-11-02T09:09:40.940Z,996.47
2018-11-02T09:10:40.936Z,996.44
2018-11-02T09:11:40.916Z,996.47
2018-11-02T09:12:40.934Z,996.46
2018-11-02T09:13:40.968Z,996.51
2018-11-02T09:14:40.882Z,996.49
2018-11-02T09:15:40.905Z,996.48
2018-11-02T09:16:40.865Z,996.49
2018-11-02T09:17:40.873Z,996.48
2018-11-02T09:18:40.844Z,996.43
2018-11-02T09:19:40.902Z,996.45
2018-11-02T09:20:40.823Z,996.42
2018-11-02T09:21:40.820Z,996.37
2018-11-02T09:22:40.824Z,996.33
2018-11-02T09:23:40.800Z,996.37
2018-11-02T09:24:40.786Z,996.34
2018-11-02T09:25:40.769Z,996.39
2018-11-02T09:26:40.821Z,996.41
2018-11-02T09:27:40.768Z,996.43
2018-11-02T09:28:40.739Z,996.45
2018-11-02T09:29:40.738Z,996.45
2018-11-02T09:30:40.725Z,996.45
2018-11-02T09:31:40.705Z,996.44
2018-11-02T09:32:40.803Z,996.43
2018-11-02T09:33:40.685Z,996.47
2018-11-02T09:34:40.679Z,996.46
2018-11-02T09:35:40.677Z,996.40
2018-11-02T09:36:40.662Z,996.43
2018-11-02T09:37:40.655Z,996.41
2018-11-02T09:38:40.631Z,996.40
2018-11-02T09:39:40.660Z,996.44
2018-11-02T09:40:40.619Z,996.37
2018-11-02T09:41:40.596Z,996.46
2018-11-02T09:42:40.625Z,996.44
2018-11-02T09:43:40.574Z,996.47
2018-11-02T09:44:40.563Z,996.48
2018-11-02T09:45:40.556Z,996.48
2018-11-02T09:46:40.593Z,996.52
2018-11-02T09:47:40.551Z,996.50
2018-11-02T09:48:40.522Z,996.53
2018-11-02T09:49:40.516Z,996.50
2018-11-02T09:50:40.501Z,996.51
2018-11-02T09:51:40.826Z,996.59
2018-11-02T09:52:40.541Z,996.52
2018-11-02T09:53:40.485Z,996.57
2018-11-02T09:54:40.460Z,996.53
2018-11-02T09:55:40.446Z,996.53
2018-11-02T09:56:40.442Z,996.53
2018-11-02T09:57:40.536Z,996.54
2018-11-02T09:58:40.429Z,996.53
2018-11-02T09:59:40.402Z,996.52
2018-11-02T10:00:40.436Z,996.48
2018-11-02T10:01:40.386Z,996.45
2018-11-02T10:02:40.373Z,996.53
2018-11-02T10:03:40.430Z,996.54
2018-11-02T10:04:40.350Z,996.52
2018-11-02T10:05:40.340Z,996.57
2018-11-02T10:06:40.327Z,996.51
2018-11-02T10:07:40.319Z,996.53
2018-11-02T10:08:40.384Z,996.51
2018-11-02T10:09:40.294Z,996.47
2018-11-02T10:10:40.284Z,996.45
2018-11-02T10:11:40.275Z,996.46
2018-11-02T10:12:40.283Z,996.45
2018-11-02T10:13:40.273Z,996.45
2018-11-02T10:14:40.283Z,996.42
2018-11-02T10:15:40.232Z,996.43
2018-11-02T10:16:40.224Z,996.36
2018-11-02T10:17:40.209Z,996.38
2018-11-02T10:18:40.218Z,996.40
2018-11-02T10:19:40.191Z,996.39
2018-11-02T10:20:40.226Z,996.35
2018-11-02T10:21:40.176Z,996.33
2018-11-02T10:22:40.163Z,996.32
2018-11-02T10:23:40.195Z,996.37
2018-11-02T10:24:40.135Z,996.31
2018-11-02T10:25:40.125Z,996.33
2018-11-02T10:26:40.138Z,996.31
2018-11-02T10:27:40.100Z,996.26
2018-11-02T10:28:40.103Z,996.25
2018-11-02T10:29:40.079Z,996.24
2018-11-02T10:30:40.069Z,996.24
2018-11-02T10:31:40.065Z,996.25
2018-11-02T10:32:40.083Z,996.19
2018-11-02T10:33:40.048Z,996.23
2018-11-02T10:34:40.024Z,996.23
2018-11-02T10:35:40.198Z,996.24
2018-11-02T10:36:40.002Z,996.30
2018-11-02T10:37:40.003Z,996.25
2018-11-02T10:38:40.049Z,996.28
2018-11-02T10:39:40.024Z,996.31
2018-11-02T10:40:39.966Z,996.32
2018-11-02T10:41:39.956Z,996.39
2018-11-02T10:42:39.937Z,996.36
2018-11-02T10:43:39.947Z,996.34
2018-11-02T10:44:39.989Z,996.31
2018-11-02T10:45:39.939Z,996.32
2018-11-02T10:46:39.894Z,996.32
2018-11-02T10:47:39.886Z,996.29
2018-11-02T10:48:39.874Z,996.29
2018-11-02T10:49:39.874Z,996.34
2018-11-02T10:50:39.893Z,996.28
2018-11-02T10:51:39.842Z,996.24
2018-11-02T10:52:39.830Z,996.22
2018-11-02T10:53:39.823Z,996.17
2018-11-02T10:54:39.875Z,996.19
2018-11-02T10:55:39.797Z,996.22
2018-11-02T10:56:39.899Z,996.26
2018-11-02T10:57:39.781Z,996.22
2018-11-02T10:58:39.766Z,996.29
2018-11-02T10:59:39.772Z,996.28
2018-11-02T11:00:39.763Z,996.30
2018-11-02T11:01:39.735Z,996.26
2018-11-02T11:02:39.767Z,996.28
2018-11-02T11:03:39.713Z,996.25
2018-11-02T11:04:39.713Z,996.23
2018-11-02T11:05:39.701Z,996.27
2018-11-02T11:06:39.685Z,996.26
2018-11-02T11:07:39.671Z,996.22
2018-11-02T11:08:39.691Z,996.27
2018-11-02T11:09:39.661Z,996.26
2018-11-02T11:10:39.638Z,996.39
2018-11-02T11:11:39.727Z,996.56
2018-11-02T11:12:39.839Z,996.42
2018-11-02T11:13:39.980Z,996.20
2018-11-02T11:14:39.650Z,996.21
2018-11-02T11:15:39.589Z,996.15
2018-11-02T11:16:39.589Z,996.14
2018-11-02T11:17:39.565Z,996.13
2018-11-02T11:18:39.548Z,996.22
2018-11-02T11:19:39.553Z,996.22
2018-11-02T11:20:39.588Z,996.11
2018-11-02T11:21:39.517Z,996.19
2018-11-02T11:22:39.506Z,996.12
2018-11-02T11:23:39.499Z,996.12
2018-11-02T11:24:39.496Z,996.13
2018-11-02T11:25:39.472Z,996.13
2018-11-02T11:26:39.507Z,996.08
2018-11-02T11:27:39.455Z,996.11
2018-11-02T11:28:39.453Z,996.24
2018-11-02T11:29:39.445Z,996.20
2018-11-02T11:30:39.422Z,996.06
2018-11-02T11:31:39.409Z,996.23
2018-11-02T11:32:39.426Z,996.06
2018-11-02T11:33:39.385Z,996.12
2018-11-02T11:34:39.390Z,996.08
2018-11-02T11:35:39.362Z,996.14
2018-11-02T11:36:39.351Z,996.11
2018-11-02T11:37:39.342Z,996.15
2018-11-02T11:38:39.361Z,996.11
2018-11-02T11:39:39.460Z,996.14
2018-11-02T11:40:39.316Z,996.10
2018-11-02T11:41:39.298Z,996.13
2018-11-02T11:42:39.288Z,996.06
2018-11-02T11:43:39.280Z,996.07
2018-11-02T11:44:39.325Z,996.07
2018-11-02T11:45:39.267Z,996.05
2018-11-02T11:46:39.286Z,996.02
2018-11-02T11:47:39.243Z,996.05
2018-11-02T11:48:39.292Z,996.07
2018-11-02T11:49:39.268Z,996.06
2018-11-02T11:50:39.222Z,996.07
2018-11-02T11:51:39.190Z,996.12
2018-11-02T11:52:39.243Z,996.02
2018-11-02T11:53:39.169Z,996.05
2018-11-02T11:54:39.278Z,996.03
2018-11-02T11:55:39.163Z,996.01
2018-11-02T11:56:39.134Z,995.93
2018-11-02T11:57:39.149Z,996.03
2018-11-02T11:58:39.112Z,996.02
2018-11-02T11:59:39.103Z,996.07
2018-11-02T12:00:39.106Z,996.13
2018-11-02T12:01:39.083Z,996.13
2018-11-02T12:02:39.069Z,996.13
2018-11-02T12:03:39.114Z,996.19
2018-11-02T12:04:39.089Z,996.21
2018-11-02T12:05:39.062Z,996.20
2018-11-02T12:06:39.046Z,996.23
2018-11-02T12:07:39.125Z,996.24
2018-11-02T12:08:39.005Z,996.30
2018-11-02T12:09:39.026Z,996.33
2018-11-02T12:10:38.999Z,996.35
2018-11-02T12:11:38.973Z,996.39
2018-11-02T12:12:38.961Z,996.47
2018-11-02T12:13:38.951Z,996.40
2018-11-02T12:14:38.940Z,996.43
2018-11-02T12:15:38.977Z,996.36
2018-11-02T12:16:38.923Z,996.37
2018-11-02T12:17:38.907Z,996.40
2018-11-02T12:18:38.898Z,996.41
2018-11-02T12:19:38.887Z,996.41
2018-11-02T12:20:38.888Z,996.42
2018-11-02T12:21:38.959Z,996.36
2018-11-02T12:22:38.853Z,996.35
2018-11-02T12:23:38.844Z,996.31
2018-11-02T12:24:38.830Z,996.41
2018-11-02T12:25:38.833Z,996.36
2018-11-02T12:26:38.809Z,996.39
2018-11-02T12:27:38.832Z,996.38
2018-11-02T12:28:38.852Z,996.40